createdAt,value
2019-05-30T00:02:08.404Z,7.40
2019-05-30T00:04:37.368Z,7.40
2019-05-30T00:07:06.081Z,7.30
2019-05-30T00:09:34.802Z,7.30
2019-05-30T00:12:04.882Z,7.30
2019-05-30T00:14:33.844Z,7.20
2019-05-30T00:17:03.049Z,7.20
2019-05-30T00:19:34.008Z,7.20
2019-05-30T00:22:03.738Z,7.10
2019-05-30T00:24:32.581Z,7.10
2019-05-30T00:27:02.438Z,7.00
2019-05-30T00:29:31.320Z,7.00
2019-05-30T00:32:00.041Z,7.00
2019-05-30T00:34:28.761Z,6.90
2019-05-30T00:36:57.734Z,7.00
2019-05-30T00:39:26.601Z,6.90
2019-05-30T00:41:56.047Z,6.90
2019-05-30T00:44:24.848Z,6.80
2019-05-30T00:46:53.580Z,6.90
2019-05-30T00:49:22.311Z,6.80
2019-05-30T00:51:51.037Z,6.80
2019-05-30T00:54:19.788Z,6.80
2019-05-30T00:56:48.520Z,6.80
2019-05-30T00:59:17.238Z,6.80
2019-05-30T01:01:45.952Z,6.70
2019-05-30T01:04:14.787Z,6.70
2019-05-30T01:06:43.506Z,6.60
2019-05-30T01:09:12.205Z,6.60
2019-05-30T01:11:40.931Z,6.60
2019-05-30T01:14:09.644Z,6.60
2019-05-30T01:16:41.743Z,6.50
2019-05-30T01:19:08.752Z,6.40
2019-05-30T01:21:37.470Z,6.50
2019-05-30T01:24:07.562Z,6.50
2019-05-30T01:26:36.429Z,6.50
2019-05-30T01:29:05.529Z,6.40
2019-05-30T01:31:34.256Z,6.40
2019-05-30T01:34:03.707Z,6.40
2019-05-30T01:36:32.493Z,6.40
2019-05-30T01:39:01.757Z,6.40
2019-05-30T01:41:30.694Z,6.40
2019-05-30T01:43:59.828Z,6.40
2019-05-30T01:46:28.677Z,6.40
2019-05-30T01:48:58.185Z,6.40
2019-05-30T01:51:27.016Z,6.40
2019-05-30T01:53:55.753Z,6.50
2019-05-30T01:56:24.557Z,6.50
2019-05-30T01:58:53.287Z,6.50
2019-05-30T02:01:25.193Z,6.50
2019-05-30T02:03:52.501Z,6.50
2019-05-30T02:06:21.422Z,6.50
2019-05-30T02:08:50.728Z,6.50
2019-05-30T02:11:21.664Z,6.50
2019-05-30T02:13:50.468Z,6.50
2019-05-30T02:16:19.177Z,6.50
2019-05-30T02:18:47.917Z,6.50
2019-05-30T02:21:16.720Z,6.50
2019-05-30T02:23:45.431Z,6.50
2019-05-30T02:26:14.158Z,6.50
2019-05-30T02:28:42.890Z,6.50
2019-05-30T02:31:12.222Z,6.50
2019-05-30T02:33:41.243Z,6.60
2019-05-30T02:36:12.495Z,6.60
2019-05-30T02:38:41.341Z,6.60
2019-05-30T02:41:11.800Z,6.70
2019-05-30T02:43:40.469Z,6.70
2019-05-30T02:46:10.580Z,6.80
2019-05-30T02:48:57.432Z,6.80
2019-05-30T02:51:10.847Z,7.00
2019-05-30T02:53:40.288Z,7.00
2019-05-30T02:56:10.250Z,7.10
2019-05-30T02:58:39.470Z,7.40
2019-05-30T03:01:09.176Z,7.70
2019-05-30T03:03:38.624Z,8.00
2019-05-30T03:06:09.208Z,8.20
2019-05-30T03:08:37.890Z,8.50
2019-05-30T03:11:07.899Z,8.70
2019-05-30T03:13:37.041Z,8.90
2019-05-30T03:16:07.507Z,9.20
2019-05-30T03:18:36.238Z,9.20
2019-05-30T03:21:05.895Z,9.10
2019-05-30T03:23:35.339Z,8.90
2019-05-30T03:26:04.832Z,8.70
2019-05-30T03:28:34.287Z,8.50
2019-05-30T03:31:10.515Z,8.40
2019-05-30T03:33:40.588Z,8.40
2019-05-30T03:36:14.420Z,8.30
2019-05-30T03:38:36.042Z,8.40
2019-05-30T03:41:06.774Z,8.40
2019-05-30T03:43:35.334Z,8.40
2019-05-30T03:46:08.677Z,8.50
2019-05-30T03:48:38.970Z,8.50
2019-05-30T03:51:11.244Z,8.60
2019-05-30T03:53:40.361Z,8.70
2019-05-30T03:56:15.940Z,8.90
2019-05-30T03:58:59.786Z,9.00
2019-05-30T04:01:37.057Z,9.10
2019-05-30T04:04:26.594Z,9.30
2019-05-30T04:07:00.978Z,9.40
2019-05-30T04:09:31.625Z,9.50
2019-05-30T04:12:10.633Z,9.60
2019-05-30T04:14:42.174Z,9.70
2019-05-30T04:17:11.153Z,9.80
2019-05-30T04:19:40.425Z,9.90
2019-05-30T04:22:09.423Z,9.90
2019-05-30T04:24:38.680Z,10.00
2019-05-30T04:27:08.013Z,10.10
2019-05-30T04:29:37.835Z,10.20
2019-05-30T04:32:08.264Z,10.20
2019-05-30T04:34:37.017Z,10.30
2019-05-30T04:37:05.805Z,10.40
2019-05-30T04:39:34.698Z,10.60
2019-05-30T04:42:03.423Z,10.60
2019-05-30T04:44:32.157Z,10.80
2019-05-30T04:47:00.955Z,10.90
2019-05-30T04:49:29.689Z,10.90
2019-05-30T04:51:58.484Z,11.00
2019-05-30T04:54:36.099Z,11.20
2019-05-30T04:59:47.635Z,11.40
2019-05-30T05:02:21.148Z,11.50
2019-05-30T05:04:53.390Z,11.60
2019-05-30T05:07:30.244Z,11.70
2019-05-30T05:09:59.401Z,11.80
2019-05-30T05:12:29.681Z,12.00
2019-05-30T05:14:59.867Z,12.00
2019-05-30T05:17:28.653Z,12.10
2019-05-30T05:20:00.489Z,12.10
2019-05-30T05:22:28.917Z,12.20
2019-05-30T05:24:57.654Z,12.30
2019-05-30T05:27:26.378Z,12.30
2019-05-30T05:29:55.101Z,12.30
2019-05-30T05:32:24.647Z,12.50
2019-05-30T05:34:53.447Z,12.50
2019-05-30T05:37:23.256Z,12.60
2019-05-30T05:39:52.135Z,12.80
2019-05-30T05:42:22.011Z,12.80
2019-05-30T05:44:51.202Z,12.90
2019-05-30T05:47:20.471Z,13.00
2019-05-30T05:49:49.359Z,13.10
2019-05-30T05:52:18.825Z,13.20
2019-05-30T05:54:47.671Z,13.30
2019-05-30T05:57:16.755Z,13.50
2019-05-30T05:59:45.539Z,13.60
2019-05-30T06:02:14.573Z,13.60
2019-05-30T06:04:43.481Z,13.60
2019-05-30T06:07:12.291Z,13.60
2019-05-30T06:09:41.025Z,13.60
2019-05-30T06:12:09.772Z,13.60
2019-05-30T06:14:38.486Z,13.70
2019-05-30T06:17:07.264Z,13.70
2019-05-30T06:19:45.836Z,13.80
2019-05-30T06:22:06.381Z,14.00
2019-05-30T06:24:35.108Z,14.00
2019-05-30T06:27:03.925Z,14.20
2019-05-30T06:29:32.658Z,14.10
2019-05-30T06:32:01.374Z,14.10
2019-05-30T06:34:38.937Z,14.20
2019-05-30T06:37:00.483Z,14.30
2019-05-30T06:39:29.703Z,14.40
2019-05-30T06:41:58.519Z,14.50
2019-05-30T06:44:28.090Z,14.40
2019-05-30T06:46:56.997Z,14.40
2019-05-30T06:49:26.785Z,14.50
2019-05-30T06:51:55.686Z,14.30
2019-05-30T06:54:25.893Z,14.40
2019-05-30T06:56:54.989Z,14.50
2019-05-30T06:59:23.705Z,14.60
2019-05-30T07:01:52.528Z,14.60
2019-05-30T07:04:22.956Z,14.80
2019-05-30T07:06:51.921Z,14.90
2019-05-30T07:09:20.917Z,14.80
2019-05-30T07:11:49.641Z,15.00
2019-05-30T07:14:18.477Z,15.10
2019-05-30T07:16:47.211Z,15.00
2019-05-30T07:19:15.930Z,14.80
2019-05-30T07:21:44.645Z,14.60
2019-05-30T07:24:13.378Z,14.70
2019-05-30T07:26:42.092Z,14.70
2019-05-30T07:29:10.812Z,14.80
2019-05-30T07:31:39.584Z,14.90
2019-05-30T07:34:08.302Z,15.00
2019-05-30T07:36:37.044Z,14.90
2019-05-30T07:39:08.260Z,15.00
2019-05-30T07:41:37.288Z,15.00
2019-05-30T07:44:06.307Z,15.20
2019-05-30T07:46:35.189Z,15.30
2019-05-30T07:49:03.941Z,15.30
2019-05-30T07:51:32.733Z,15.40
2019-05-30T07:54:01.557Z,15.40
2019-05-30T07:56:31.004Z,15.50
2019-05-30T07:58:59.793Z,15.60
2019-05-30T08:01:28.585Z,15.60
2019-05-30T08:03:57.312Z,15.70
2019-05-30T08:06:26.065Z,15.70
2019-05-30T08:08:54.776Z,15.60
2019-05-30T08:11:23.508Z,15.60
2019-05-30T08:13:52.230Z,15.70
2019-05-30T08:16:20.969Z,15.60
2019-05-30T08:18:49.675Z,15.70
2019-05-30T08:21:18.393Z,15.80
2019-05-30T08:23:47.112Z,15.80
2019-05-30T08:26:18.325Z,15.80
2019-05-30T08:28:46.240Z,15.80
2019-05-30T08:31:14.973Z,15.80
2019-05-30T08:33:47.180Z,15.70
2019-05-30T08:36:14.117Z,15.60
2019-05-30T08:38:42.846Z,15.50
2019-05-30T08:41:11.568Z,15.60
2019-05-30T08:43:40.296Z,15.60
2019-05-30T08:46:09.032Z,15.70
2019-05-30T08:48:38.293Z,15.80
2019-05-30T08:51:07.047Z,15.90
2019-05-30T08:53:36.432Z,15.80
2019-05-30T08:56:06.273Z,15.70
2019-05-30T08:58:34.989Z,16.00
2019-05-30T09:01:03.778Z,15.90
2019-05-30T09:03:32.527Z,15.90
2019-05-30T09:06:04.063Z,16.10
2019-05-30T09:08:31.673Z,16.10
2019-05-30T09:11:00.492Z,16.10
2019-05-30T09:13:29.255Z,16.30
2019-05-30T09:15:58.021Z,16.10
2019-05-30T09:18:26.766Z,16.30
2019-05-30T09:20:55.521Z,16.40
2019-05-30T09:23:24.241Z,16.00
2019-05-30T09:25:52.971Z,16.20
2019-05-30T09:28:21.739Z,16.60
2019-05-30T09:30:50.413Z,16.60
2019-05-30T09:33:19.133Z,16.60
2019-05-30T09:35:48.992Z,16.60
2019-05-30T09:38:17.945Z,16.50
2019-05-30T09:40:47.626Z,16.60
2019-05-30T09:43:16.564Z,16.70
2019-05-30T09:45:46.025Z,16.70
2019-05-30T09:48:14.920Z,16.70
2019-05-30T09:50:45.128Z,16.70
2019-05-30T09:53:13.997Z,16.70
2019-05-30T09:55:43.245Z,16.60
2019-05-30T09:58:13.108Z,16.70
2019-05-30T10:00:44.534Z,16.70
2019-05-30T10:03:12.231Z,16.80
2019-05-30T10:05:43.274Z,16.70
2019-05-30T10:08:11.327Z,16.70
2019-05-30T10:10:40.038Z,16.60
2019-05-30T10:13:08.785Z,16.60
2019-05-30T10:15:37.502Z,16.70
2019-05-30T10:18:06.215Z,16.90
2019-05-30T10:20:34.932Z,17.20
2019-05-30T10:23:03.845Z,17.50
2019-05-30T10:25:34.672Z,17.70
2019-05-30T10:28:03.399Z,17.60
2019-05-30T10:30:32.333Z,17.40
2019-05-30T10:33:01.067Z,17.10
2019-05-30T10:35:30.276Z,17.30
2019-05-30T10:37:59.022Z,17.20
2019-05-30T10:40:27.829Z,17.50
2019-05-30T10:42:56.905Z,17.50
2019-05-30T10:45:29.441Z,17.50
2019-05-30T10:48:03.315Z,17.30
2019-05-30T10:50:32.028Z,17.40
2019-05-30T10:53:00.794Z,17.60
2019-05-30T10:55:29.521Z,17.40
2019-05-30T10:57:59.648Z,17.50
2019-05-30T11:00:43.684Z,17.60
2019-05-30T11:03:12.473Z,17.80
2019-05-30T11:05:42.675Z,17.80
2019-05-30T11:08:14.459Z,17.90
2019-05-30T11:10:43.449Z,18.00
2019-05-30T11:13:15.455Z,18.10
2019-05-30T11:15:44.342Z,17.90
2019-05-30T11:18:13.053Z,17.90
2019-05-30T11:20:41.888Z,18.10
2019-05-30T11:23:10.602Z,18.20
2019-05-30T11:25:39.334Z,18.30
2019-05-30T11:28:08.194Z,18.30
2019-05-30T11:30:36.948Z,18.20
2019-05-30T11:33:06.205Z,18.20
2019-05-30T11:35:35.191Z,18.30
2019-05-30T11:38:04.208Z,18.30
2019-05-30T11:40:32.997Z,18.30
2019-05-30T11:43:01.725Z,18.20
2019-05-30T11:45:30.536Z,17.90
2019-05-30T11:48:00.139Z,18.00
2019-05-30T11:50:30.297Z,17.90
2019-05-30T11:53:00.189Z,18.10
2019-05-30T11:55:29.050Z,18.00
2019-05-30T11:57:58.352Z,18.20
2019-05-30T12:00:28.007Z,18.40
2019-05-30T12:02:56.817Z,18.20
2019-05-30T12:05:27.279Z,18.00
2019-05-30T12:07:56.969Z,18.00
2019-05-30T12:10:26.552Z,18.10
2019-05-30T12:12:55.644Z,18.30
2019-05-30T12:15:24.488Z,18.40
2019-05-30T12:17:53.317Z,18.50
2019-05-30T12:20:22.237Z,18.50
2019-05-30T12:22:51.742Z,18.20
2019-05-30T12:25:21.458Z,18.20
2019-05-30T12:27:50.183Z,18.30
2019-05-30T12:30:20.811Z,18.20
2019-05-30T12:32:49.625Z,18.40
2019-05-30T12:35:18.632Z,18.50
2019-05-30T12:37:54.679Z,18.50
2019-05-30T12:40:19.296Z,18.50
2019-05-30T12:42:48.049Z,18.60
2019-05-30T12:45:17.653Z,18.80
2019-05-30T12:47:46.468Z,18.70
2019-05-30T12:50:16.757Z,18.70
2019-05-30T12:52:45.810Z,18.60
2019-05-30T12:55:16.426Z,18.60
2019-05-30T12:57:45.145Z,18.40
2019-05-30T13:00:28.749Z,18.60
2019-05-30T13:02:57.469Z,18.80
2019-05-30T13:05:26.189Z,18.80
2019-05-30T13:08:11.757Z,18.50
2019-05-30T13:10:25.536Z,18.60
2019-05-30T13:12:55.446Z,18.60
2019-05-30T13:15:24.542Z,18.70
2019-05-30T13:17:55.493Z,18.60
2019-05-30T13:20:23.911Z,18.50
2019-05-30T13:22:52.637Z,18.50
2019-05-30T13:25:21.556Z,18.40
2019-05-30T13:27:50.277Z,18.50
2019-05-30T13:30:19.402Z,18.40
2019-05-30T13:32:48.171Z,18.40
2019-05-30T13:35:17.143Z,18.50
2019-05-30T13:37:45.974Z,18.50
2019-05-30T13:40:25.068Z,18.60
2019-05-30T13:42:45.424Z,18.60
2019-05-30T13:45:14.600Z,18.70
2019-05-30T13:47:43.337Z,18.90
2019-05-30T13:50:14.646Z,19.30
2019-05-30T13:52:43.535Z,19.30
2019-05-30T13:55:13.094Z,19.40
2019-05-30T13:57:41.768Z,19.50
2019-05-30T14:00:12.955Z,19.60
2019-05-30T14:02:41.702Z,19.80
2019-05-30T14:05:11.814Z,19.90
2019-05-30T14:07:40.535Z,20.20
2019-05-30T14:10:12.468Z,20.40
2019-05-30T14:12:41.204Z,20.00
2019-05-30T14:15:14.038Z,20.10
2019-05-30T14:17:40.625Z,20.10
2019-05-30T14:20:11.316Z,20.10
2019-05-30T14:22:40.292Z,20.00
2019-05-30T14:25:11.748Z,19.90
2019-05-30T14:27:40.741Z,19.60
2019-05-30T14:30:11.197Z,19.90
2019-05-30T14:32:40.071Z,20.20
2019-05-30T14:35:13.863Z,20.50
2019-05-30T14:37:42.920Z,20.50
2019-05-30T14:40:14.221Z,20.80
2019-05-30T14:42:42.942Z,20.70
2019-05-30T14:45:14.680Z,21.10
2019-05-30T14:47:43.541Z,21.20
2019-05-30T14:50:17.288Z,21.80
2019-05-30T14:52:46.575Z,21.90
2019-05-30T14:55:15.293Z,21.40
2019-05-30T14:57:44.025Z,21.90
2019-05-30T15:00:14.919Z,22.10
2019-05-30T15:02:43.741Z,22.50
2019-05-30T15:05:13.913Z,22.70
2019-05-30T15:07:42.801Z,22.30
2019-05-30T15:10:12.785Z,22.50
2019-05-30T15:12:41.636Z,22.60
2019-05-30T15:15:13.212Z,23.00
2019-05-30T15:17:40.722Z,22.90
2019-05-30T15:20:12.044Z,22.50
2019-05-30T15:22:40.902Z,22.30
2019-05-30T15:25:12.085Z,22.60
2019-05-30T15:27:40.888Z,22.70
2019-05-30T15:30:10.772Z,22.30
2019-05-30T15:32:39.696Z,22.20
2019-05-30T15:35:09.096Z,22.00
2019-05-30T15:37:40.767Z,22.40
2019-05-30T15:40:08.906Z,22.60
2019-05-30T15:42:37.716Z,23.20
2019-05-30T15:45:08.172Z,23.00
2019-05-30T15:47:37.117Z,21.90
2019-05-30T15:50:08.304Z,22.40
2019-05-30T15:52:37.482Z,22.00
2019-05-30T15:55:09.025Z,22.30
2019-05-30T15:57:38.039Z,21.90
2019-05-30T16:00:14.145Z,21.50
2019-05-30T16:02:43.117Z,21.10
2019-05-30T16:05:12.646Z,20.60
2019-05-30T16:07:41.380Z,20.10
2019-05-30T16:10:10.948Z,20.00
2019-05-30T16:12:39.822Z,19.80
2019-05-30T16:15:09.500Z,19.70
2019-05-30T16:17:38.232Z,19.40
2019-05-30T16:20:07.818Z,19.20
2019-05-30T16:22:36.697Z,19.20
2019-05-30T16:25:06.529Z,19.10
2019-05-30T16:27:35.303Z,19.00
2019-05-30T16:30:09.273Z,19.10
2019-05-30T16:32:38.361Z,19.20
2019-05-30T16:35:08.680Z,19.30
2019-05-30T16:37:37.472Z,19.10
2019-05-30T16:40:08.274Z,18.80
2019-05-30T16:42:37.191Z,18.60
2019-05-30T16:45:08.814Z,18.50
2019-05-30T16:47:37.674Z,18.40
2019-05-30T16:50:08.466Z,18.30
2019-05-30T16:52:37.474Z,18.20
2019-05-30T16:55:07.907Z,18.10
2019-05-30T16:57:36.739Z,18.00
2019-05-30T17:00:07.966Z,17.90
2019-05-30T17:02:36.735Z,17.90
2019-05-30T17:05:10.044Z,17.70
2019-05-30T17:07:38.769Z,17.70
2019-05-30T17:10:21.522Z,17.60
2019-05-30T17:12:38.579Z,17.50
2019-05-30T17:15:08.975Z,17.50
2019-05-30T17:17:37.679Z,17.40
2019-05-30T17:20:08.470Z,17.40
2019-05-30T17:22:37.179Z,17.40
2019-05-30T17:25:07.433Z,17.40
2019-05-30T17:27:38.782Z,17.40
2019-05-30T17:30:10.202Z,17.30
2019-05-30T17:32:38.942Z,17.20
2019-05-30T17:35:08.542Z,17.20
2019-05-30T17:37:37.266Z,17.20
2019-05-30T17:40:10.794Z,17.10
2019-05-30T17:42:39.748Z,17.00
2019-05-30T17:45:09.333Z,16.90
2019-05-30T17:47:38.176Z,16.80
2019-05-30T17:50:08.195Z,16.70
2019-05-30T17:52:37.003Z,16.50
2019-05-30T17:55:08.751Z,16.40
2019-05-30T17:57:37.473Z,16.40
2019-05-30T18:00:11.374Z,16.30
2019-05-30T18:02:40.496Z,16.20
2019-05-30T18:05:10.443Z,16.10
2019-05-30T18:07:39.203Z,16.00
2019-05-30T18:10:08.809Z,15.90
2019-05-30T18:12:37.675Z,15.80
2019-05-30T18:15:10.772Z,15.70
2019-05-30T18:17:39.494Z,15.70
2019-05-30T18:20:09.946Z,15.50
2019-05-30T18:22:38.626Z,15.40
2019-05-30T18:25:09.150Z,15.40
2019-05-30T18:27:37.889Z,15.40
2019-05-30T18:30:08.314Z,15.30
2019-05-30T18:32:37.034Z,15.30
2019-05-30T18:35:06.748Z,15.30
2019-05-30T18:37:35.528Z,15.10
2019-05-30T18:40:08.869Z,15.10
2019-05-30T18:42:37.614Z,15.00
2019-05-30T18:45:11.028Z,14.90
2019-05-30T18:47:39.751Z,14.80
2019-05-30T18:50:09.379Z,14.70
2019-05-30T18:52:38.173Z,14.60
2019-05-30T18:55:10.916Z,14.50
2019-05-30T18:57:39.659Z,14.50
2019-05-30T19:00:11.720Z,14.50
2019-05-30T19:02:40.492Z,14.50
2019-05-30T19:05:09.414Z,14.40
2019-05-30T19:07:38.128Z,14.30
2019-05-30T19:10:07.594Z,14.20
2019-05-30T19:12:36.647Z,14.20
2019-05-30T19:15:07.211Z,14.00
2019-05-30T19:17:36.155Z,14.00
2019-05-30T19:20:06.819Z,13.90
2019-05-30T19:22:36.389Z,13.80
2019-05-30T19:25:08.178Z,13.70
2019-05-30T19:27:37.104Z,13.70
2019-05-30T19:30:08.957Z,13.60
2019-05-30T19:32:37.785Z,13.60
2019-05-30T19:35:08.545Z,13.50
2019-05-30T19:37:37.691Z,13.40
2019-05-30T19:40:08.195Z,13.40
2019-05-30T19:42:37.862Z,13.30
2019-05-30T19:45:09.033Z,13.30
2019-05-30T19:47:38.816Z,13.20
2019-05-30T19:50:08.596Z,13.20
2019-05-30T19:52:37.331Z,13.10
2019-05-30T19:55:10.438Z,13.20
2019-05-30T19:57:39.907Z,13.10
2019-05-30T20:00:10.888Z,13.10
2019-05-30T20:02:40.501Z,13.10
2019-05-30T20:05:09.716Z,13.00
2019-05-30T20:07:38.923Z,12.90
2019-05-30T20:10:08.364Z,12.90
2019-05-30T20:12:37.206Z,12.90
2019-05-30T20:15:10.545Z,12.80
2019-05-30T20:17:39.760Z,12.70
2019-05-30T20:20:09.399Z,12.70
2019-05-30T20:22:38.301Z,12.60
2019-05-30T20:25:08.586Z,12.70
2019-05-30T20:27:38.814Z,12.60
2019-05-30T20:30:09.291Z,12.60
2019-05-30T20:32:38.779Z,12.70
2019-05-30T20:35:08.041Z,12.60
2019-05-30T20:37:36.935Z,12.60
2019-05-30T20:40:08.451Z,12.50
2019-05-30T20:42:37.176Z,12.50
2019-05-30T20:45:09.929Z,12.50
2019-05-30T20:47:38.667Z,12.50
2019-05-30T20:50:09.033Z,12.60
2019-05-30T20:52:40.528Z,12.50
2019-05-30T20:55:09.987Z,12.50
2019-05-30T20:57:38.700Z,12.40
2019-05-30T21:00:11.753Z,12.40
2019-05-30T21:02:40.861Z,12.40
2019-05-30T21:05:10.210Z,12.30
2019-05-30T21:07:41.933Z,12.30
2019-05-30T21:10:10.200Z,12.20
2019-05-30T21:12:41.873Z,12.20
2019-05-30T21:15:09.324Z,12.20
2019-05-30T21:17:38.090Z,12.10
2019-05-30T21:20:11.476Z,12.00
2019-05-30T21:22:40.119Z,11.90
2019-05-30T21:25:09.130Z,11.80
2019-05-30T21:27:39.070Z,11.80
2019-05-30T21:30:08.537Z,11.50
2019-05-30T21:32:37.668Z,11.40
2019-05-30T21:35:09.843Z,11.30
2019-05-30T21:37:39.591Z,11.20
2019-05-30T21:40:08.802Z,11.10
2019-05-30T21:42:53.654Z,11.10
2019-05-30T21:45:08.589Z,11.00
2019-05-30T21:47:38.558Z,10.90
2019-05-30T21:50:08.035Z,10.80
2019-05-30T21:52:36.944Z,10.80
2019-05-30T21:55:07.379Z,10.80
2019-05-30T21:57:36.105Z,10.70
2019-05-30T22:00:13.410Z,10.60
2019-05-30T22:02:45.040Z,10.60
2019-05-30T22:05:13.115Z,10.60
2019-05-30T22:07:42.987Z,10.60
2019-05-30T22:10:11.882Z,10.50
2019-05-30T22:12:41.462Z,10.40
2019-05-30T22:15:10.420Z,10.40
2019-05-30T22:17:39.223Z,10.40
2019-05-30T22:20:09.112Z,10.30
2019-05-30T22:22:37.848Z,10.20
2019-05-30T22:25:07.100Z,10.40
2019-05-30T22:27:35.873Z,10.30
2019-05-30T22:30:05.984Z,10.30
2019-05-30T22:32:34.702Z,10.20
2019-05-30T22:35:04.496Z,10.10
2019-05-30T22:37:33.234Z,10.10
2019-05-30T22:40:01.975Z,10.00
2019-05-30T22:42:30.722Z,10.00
2019-05-30T22:44:59.425Z,10.00
2019-05-30T22:47:28.132Z,10.00
2019-05-30T22:49:57.034Z,9.90
2019-05-30T22:52:25.772Z,9.90
2019-05-30T22:54:54.488Z,9.80
2019-05-30T22:57:23.236Z,9.80
2019-05-30T22:59:53.060Z,9.70
2019-05-30T23:02:21.865Z,9.70
2019-05-30T23:04:50.568Z,9.70
2019-05-30T23:07:19.284Z,9.70
2019-05-30T23:09:48.003Z,9.60
2019-05-30T23:12:16.810Z,9.60
2019-05-30T23:14:45.897Z,9.50
2019-05-30T23:17:14.777Z,9.50
2019-05-30T23:19:43.489Z,9.40
2019-05-30T23:22:12.202Z,9.50
2019-05-30T23:24:40.920Z,9.40
2019-05-30T23:27:09.640Z,9.40
2019-05-30T23:29:38.459Z,9.40
2019-05-30T23:32:07.187Z,9.40
2019-05-30T23:34:36.021Z,9.40
2019-05-30T23:37:04.865Z,9.40
2019-05-30T23:39:33.577Z,9.30
2019-05-30T23:42:02.369Z,9.30
2019-05-30T23:44:31.080Z,9.20
2019-05-30T23:46:59.843Z,9.20
2019-05-30T23:49:28.515Z,9.10
2019-05-30T23:51:58.371Z,9.00
2019-05-30T23:54:27.235Z,9.00
2019-05-30T23:56:56.514Z,8.90
2019-05-30T23:59:25.480Z,8.90
